Time;durP1;ratioP1;P1;durP2;ratioP2;P2;SDS_P1;SDS_P2;PMS_P1;PMS_P2;Temp;Humidity;BMP_temperature;BMP_pressure;BME280_temperature;BME280_humidity;BME280_pressure;Samples;Min_cycle;Max_cycle;Signal;HPM_P1;HPM_P2
2021/12/17 00:03:07;;;;;;;15.63;7.22;;;8.50;89.00;;;;;;5014439;28;20381;-69
2021/12/17 00:05:43;;;;;;;13.38;6.65;;;8.60;89.00;;;;;;4974560;28;20235;-69
2021/12/17 00:08:19;;;;;;;12.89;5.20;;;8.50;89.00;;;;;;3733870;28;10151234;-69
2021/12/17 00:10:51;;;;;;;15.20;7.35;;;8.50;89.10;;;;;;1726150;28;10002073;-70
2021/12/17 00:13:20;;;;;;;16.35;7.95;;;8.50;89.10;;;;;;5010137;28;20053;-70
2021/12/17 00:15:54;;;;;;;15.48;6.43;;;8.50;89.10;;;;;;5003411;28;20072;-69
2021/12/17 00:18:26;;;;;;;17.15;8.77;;;8.50;89.10;;;;;;5009985;28;20060;-69
2021/12/17 00:48:38;;;;;;;11.70;6.75;;;8.40;89.20;;;;;;5006328;28;20053;-69
2021/12/17 00:53:51;;;;;;;18.02;7.68;;;8.40;89.20;;;;;;4993718;28;20517;-69
2021/12/17 00:56:18;;;;;;;13.95;6.82;;;8.40;89.20;;;;;;4990146;28;20512;-69
2021/12/17 00:58:46;;;;;;;15.25;7.07;;;8.40;89.20;;;;;;5008299;28;20100;-69
2021/12/17 01:01:15;;;;;;;18.88;8.90;;;8.40;89.10;;;;;;5004020;28;20045;-70
2021/12/17 01:03:43;;;;;;;18.67;7.80;;;8.40;89.20;;;;;;5008515;28;20407;-70
2021/12/17 01:06:10;;;;;;;13.90;6.95;;;8.40;89.20;;;;;;4988259;28;20485;-69
2021/12/17 01:08:37;;;;;;;20.92;7.97;;;8.40;89.20;;;;;;5002827;28;20480;-68
2021/12/17 01:11:07;;;;;;;14.82;7.13;;;8.40;89.20;;;;;;5008415;28;20455;-68
2021/12/17 01:14:07;;;;;;;13.88;6.85;;;8.40;89.20;;;;;;4983677;28;20078;-68
2021/12/17 01:16:54;;;;;;;14.68;7.10;;;8.40;89.20;;;;;;4992262;28;20524;-68
2021/12/17 01:20:09;;;;;;;15.18;6.82;;;8.40;89.20;;;;;;5009310;28;20089;-70
2021/12/17 01:25:48;;;;;;;13.88;5.82;;;8.40;89.10;;;;;;4965145;28;20066;-70
2021/12/17 01:41:14;;;;;;;17.95;7.45;;;8.40;89.10;;;;;;4993726;28;20129;-68
2021/12/17 01:43:45;;;;;;;13.77;6.68;;;8.40;89.10;;;;;;4991413;28;20109;-68
2021/12/17 01:46:14;;;;;;;16.05;6.28;;;8.40;89.10;;;;;;4991582;28;20055;-68
2021/12/17 01:49:01;;;;;;;13.57;7.13;;;8.40;89.10;;;;;;4987403;28;20046;-69
2021/12/17 01:59:20;;;;;;;16.77;6.65;;;8.40;89.10;;;;;;4984131;28;20053;-71
2021/12/17 01:59:50;;;;;;;15.93;5.90;;;8.40;89.10;;;;;;4981473;28;20058;-69
2021/12/17 02:02:18;;;;;;;16.08;7.55;;;8.40;89.10;;;;;;5003257;28;20428;-70
2021/12/17 02:04:45;;;;;;;16.08;7.95;;;8.40;89.10;;;;;;4990543;28;20113;-70
2021/12/17 02:07:13;;;;;;;17.83;7.80;;;8.40;89.20;;;;;;4988189;28;20142;-69
2021/12/17 02:29:20;;;;;;;16.35;7.32;;;8.30;89.20;;;;;;4989389;28;20065;-69
2021/12/17 02:31:48;;;;;;;12.27;6.60;;;8.30;89.10;;;;;;5002699;28;20049;-68
2021/12/17 02:34:30;;;;;;;15.52;7.25;;;8.30;89.10;;;;;;4987905;28;20141;-68
2021/12/17 02:37:00;;;;;;;17.83;6.03;;;8.30;89.10;;;;;;4981036;28;20043;-69
2021/12/17 02:40:04;;;;;;;13.52;6.20;;;8.30;89.10;;;;;;4987765;28;20046;-69
2021/12/17 02:45:31;;;;;;;15.50;6.50;;;8.30;89.00;;;;;;5002965;28;20140;-67
2021/12/17 02:45:34;;;;;;;14.15;6.25;;;8.20;89.00;;;;;;4989172;28;20042;-67
2021/12/17 02:48:06;;;;;;;14.88;6.57;;;8.20;89.00;;;;;;4990602;28;20060;-69
2021/12/17 02:50:35;;;;;;;11.10;6.32;;;8.20;89.00;;;;;;4990054;28;20050;-68
2021/12/17 02:53:07;;;;;;;14.73;6.25;;;8.30;89.00;;;;;;4990716;28;20042;-67
2021/12/17 02:55:36;;;;;;;14.23;6.30;;;8.20;89.10;;;;;;4989922;28;20073;-68
2021/12/17 02:58:05;;;;;;;12.48;5.68;;;8.20;89.10;;;;;;5004471;28;20046;-69
2021/12/17 03:00:32;;;;;;;12.43;6.53;;;8.30;89.10;;;;;;5003822;28;20488;-69
2021/12/17 03:03:00;;;;;;;16.45;6.45;;;8.20;89.10;;;;;;4989561;28;20046;-68
2021/12/17 03:05:30;;;;;;;;;;;8.20;89.10;;;;;;4986223;28;20508;-68
2021/12/17 03:07:57;;;;;;;15.38;7.10;;;8.20;89.10;;;;;;4987675;28;19922;-69
2021/12/17 03:10:26;;;;;;;17.90;7.47;;;8.20;89.20;;;;;;4988862;28;20042;-68
2021/12/17 03:12:58;;;;;;;14.43;6.22;;;8.20;89.20;;;;;;4988855;28;20069;-69
2021/12/17 03:15:33;;;;;;;12.27;5.93;;;8.20;89.10;;;;;;4991735;28;20046;-67
2021/12/17 03:18:41;;;;;;;12.05;6.00;;;8.20;89.10;;;;;;4989896;28;20057;-68
2021/12/17 03:23:50;;;;;;;13.20;6.30;;;8.20;89.00;;;;;;5006891;28;20054;-68
2021/12/17 03:26:28;;;;;;;13.15;5.35;;;8.20;89.00;;;;;;4987025;28;20559;-67
2021/12/17 03:29:00;;;;;;;11.25;5.32;;;8.20;89.00;;;;;;5003661;28;20054;-68
2021/12/17 03:31:30;;;;;;;13.13;5.20;;;8.20;88.90;;;;;;4988348;28;20147;-70
2021/12/17 03:34:13;;;;;;;11.68;4.90;;;8.10;88.90;;;;;;4989350;28;20444;-68
2021/12/17 03:36:40;;;;;;;13.70;4.68;;;8.10;88.90;;;;;;4989940;28;20057;-68
2021/12/17 03:39:08;;;;;;;12.30;4.28;;;8.10;88.80;;;;;;4989071;28;20493;-69
2021/12/17 03:41:38;;;;;;;11.13;3.95;;;8.10;88.80;;;;;;4986995;28;20538;-68
2021/12/17 03:44:08;;;;;;;8.50;3.83;;;8.10;88.70;;;;;;4986641;28;20140;-68
2021/12/17 03:47:02;;;;;;;8.70;3.20;;;8.10;88.60;;;;;;4979423;28;20061;-68
2021/12/17 03:49:40;;;;;;;7.88;2.83;;;8.10;88.60;;;;;;4986805;28;20073;-68
2021/12/17 03:52:09;;;;;;;8.52;3.42;;;8.10;88.70;;;;;;4983905;28;20408;-69
2021/12/17 03:54:40;;;;;;;8.23;3.80;;;8.00;88.60;;;;;;4986558;28;20100;-70
2021/12/17 03:57:13;;;;;;;6.28;2.45;;;8.10;88.60;;;;;;4985229;28;20463;-69
2021/12/17 03:59:46;;;;;;;5.60;2.38;;;8.00;88.50;;;;;;4986339;28;20042;-68
2021/12/17 04:02:14;;;;;;;8.35;3.10;;;8.00;88.50;;;;;;4982849;28;20069;-68
2021/12/17 04:04:42;;;;;;;8.02;3.08;;;8.00;88.50;;;;;;4999514;28;25913;-70
2021/12/17 04:07:38;;;;;;;6.72;2.78;;;8.00;88.50;;;;;;4951788;28;20485;-68
2021/12/17 04:10:12;;;;;;;5.32;2.65;;;8.00;88.40;;;;;;5008686;28;20042;-69
2021/12/17 04:12:55;;;;;;;8.20;3.72;;;8.00;88.50;;;;;;4993054;28;20057;-69
2021/12/17 04:15:32;;;;;;;8.45;3.97;;;8.00;88.50;;;;;;4974952;28;20128;-69
2021/12/17 04:18:00;;;;;;;7.85;3.85;;;8.00;88.50;;;;;;5004290;28;20046;-68
2021/12/17 04:20:28;;;;;;;7.70;3.60;;;8.00;88.50;;;;;;4982059;28;20490;-68
2021/12/17 04:22:55;;;;;;;7.63;3.15;;;8.00;88.50;;;;;;5001100;28;20492;-68
2021/12/17 04:25:23;;;;;;;8.95;3.85;;;8.00;88.60;;;;;;4984257;28;20127;-70
2021/12/17 04:27:51;;;;;;;7.00;3.30;;;8.00;88.50;;;;;;4983697;28;20070;-68
2021/12/17 04:30:19;;;;;;;7.43;2.70;;;8.00;88.50;;;;;;4982146;28;20041;-69
2021/12/17 04:32:46;;;;;;;8.38;3.40;;;7.90;88.60;;;;;;4983322;28;20048;-68
2021/12/17 04:35:13;;;;;;;9.43;4.38;;;8.00;88.60;;;;;;5000566;28;20121;-69
2021/12/17 04:37:46;;;;;;;8.15;3.40;;;7.90;88.50;;;;;;4983608;28;20138;-68
2021/12/17 04:40:14;;;;;;;7.25;3.17;;;7.90;88.50;;;;;;4984046;28;20510;-67
2021/12/17 04:42:58;;;;;;;9.68;2.78;;;7.90;88.50;;;;;;4985472;28;20479;-69
2021/12/17 04:45:28;;;;;;;6.13;2.28;;;8.00;88.50;;;;;;4987279;28;20209;-66
2021/12/17 04:59:23;;;;;;;3.45;1.85;;;7.80;88.30;;;;;;5004278;28;20156;-67
2021/12/17 05:01:53;;;;;;;3.58;1.67;;;7.80;88.20;;;;;;4998462;28;20038;-68
2021/12/17 05:04:21;;;;;;;6.80;2.03;;;7.80;88.10;;;;;;5001303;28;20549;-68
2021/12/17 05:06:48;;;;;;;5.90;1.70;;;7.80;88.10;;;;;;5002730;28;20057;-68
2021/12/17 05:09:27;;;;;;;4.47;1.50;;;7.80;88.10;;;;;;4987823;28;20045;-68
2021/12/17 05:20:25;;;;;;;4.40;1.30;;;7.70;88.00;;;;;;5004635;28;20054;-68
2021/12/17 05:22:57;;;;;;;4.75;2.17;;;7.70;88.00;;;;;;5005042;28;20065;-69
2021/12/17 05:25:26;;;;;;;5.22;2.05;;;7.70;87.90;;;;;;5009551;28;20061;-67
2021/12/17 05:27:55;;;;;;;6.82;1.65;;;7.70;87.90;;;;;;4990413;28;20042;-67
2021/12/17 05:30:23;;;;;;;6.45;1.85;;;7.70;88.00;;;;;;4982073;28;20065;-69
2021/12/17 05:32:53;;;;;;;6.63;1.42;;;7.70;88.00;;;;;;4988459;28;20076;-68
2021/12/17 05:35:20;;;;;;;4.35;1.48;;;7.70;88.10;;;;;;4992620;28;20374;-68
2021/12/17 05:37:47;;;;;;;4.18;1.85;;;7.70;88.00;;;;;;4993761;28;20129;-69
2021/12/17 05:40:14;;;;;;;4.05;1.92;;;7.70;88.10;;;;;;4992386;28;20054;-69
2021/12/17 05:42:43;;;;;;;7.53;2.30;;;7.70;88.00;;;;;;4993370;28;20048;-70
2021/12/17 05:45:33;;;;;;;4.32;2.03;;;7.70;88.00;;;;;;4992507;28;20530;-68
2021/12/17 05:48:04;;;;;;;3.28;1.40;;;7.70;88.10;;;;;;4981368;28;20101;-69
2021/12/17 05:50:31;;;;;;;;;;;7.80;88.10;;;;;;5003420;28;20477;-68
2021/12/17 05:52:58;;;;;;;2.63;1.15;;;7.70;88.10;;;;;;5007555;28;19921;-67
2021/12/17 05:55:26;;;;;;;5.53;2.33;;;7.70;88.10;;;;;;4983978;28;20395;-68
2021/12/17 05:57:55;;;;;;;3.83;1.65;;;7.70;88.10;;;;;;5000753;28;20147;-68
2021/12/17 06:00:25;;;;;;;4.13;2.35;;;7.70;88.10;;;;;;4988230;28;20496;-68
2021/12/17 06:02:52;;;;;;;5.95;2.42;;;7.70;88.20;;;;;;5012517;28;20041;-69
2021/12/17 06:05:47;;;;;;;5.82;2.85;;;7.70;88.20;;;;;;4987150;28;20054;-68
2021/12/17 06:08:18;;;;;;;6.47;2.10;;;7.70;88.20;;;;;;5004036;28;20044;-69
2021/12/17 06:10:46;;;;;;;5.70;2.60;;;7.70;88.20;;;;;;5001419;28;20104;-67
2021/12/17 06:13:17;;;;;;;6.85;3.17;;;7.70;88.20;;;;;;5000115;28;20057;-69
2021/12/17 06:15:46;;;;;;;8.23;3.45;;;7.70;88.10;;;;;;4994123;28;20048;-67
2021/12/17 06:18:14;;;;;;;6.57;2.63;;;7.70;88.20;;;;;;5004501;28;20120;-67
2021/12/17 06:20:42;;;;;;;7.47;3.28;;;7.70;88.20;;;;;;4985714;28;20049;-68
2021/12/17 06:23:11;;;;;;;7.80;3.88;;;7.70;88.10;;;;;;4993717;28;20053;-68
2021/12/17 06:25:39;;;;;;;7.88;3.85;;;7.70;87.90;;;;;;4992923;28;20125;-67
2021/12/17 06:28:08;;;;;;;7.20;3.65;;;7.80;87.40;;;;;;5009119;28;20057;-68
2021/12/17 06:30:36;;;;;;;6.22;3.13;;;7.70;86.80;;;;;;4988021;28;20037;-68
2021/12/17 06:33:08;;;;;;;6.70;3.30;;;7.70;86.50;;;;;;4990917;28;20057;-68
2021/12/17 06:35:35;;;;;;;7.43;3.53;;;7.70;86.30;;;;;;4986754;28;20052;-70
2021/12/17 06:38:04;;;;;;;7.97;3.75;;;7.70;86.10;;;;;;4999801;28;20100;-67
2021/12/17 06:40:35;;;;;;;8.07;3.85;;;7.70;85.90;;;;;;4986776;28;20108;-69
2021/12/17 06:43:03;;;;;;;6.40;3.35;;;7.70;85.90;;;;;;5007612;28;20569;-69
2021/12/17 06:45:50;;;;;;;5.93;3.42;;;7.70;85.90;;;;;;5008968;28;20062;-69
2021/12/17 06:48:22;;;;;;;5.25;2.80;;;7.70;85.80;;;;;;4990590;28;20038;-68
2021/12/17 07:00:19;;;;;;;5.93;2.78;;;7.80;85.50;;;;;;4979019;28;20496;-70
2021/12/17 07:06:20;;;;;;;7.72;3.10;;;7.80;85.10;;;;;;5006360;28;20062;-68
2021/12/17 07:17:45;;;;;;;7.00;3.53;;;7.70;84.80;;;;;;4999883;28;20042;-69
2021/12/17 07:23:13;;;;;;;6.78;3.63;;;7.70;84.80;;;;;;4978112;28;20045;-68
2021/12/17 07:34:01;;;;;;;6.45;3.38;;;7.70;84.90;;;;;;4982183;28;20038;-69
2021/12/17 07:36:42;;;;;;;5.97;3.45;;;7.80;84.90;;;;;;4985869;28;20050;-68
2021/12/17 07:39:12;;;;;;;7.82;3.80;;;7.80;84.80;;;;;;5000878;28;20050;-69
2021/12/17 07:41:43;;;;;;;6.90;3.78;;;7.80;85.00;;;;;;4999852;28;20055;-69
2021/12/17 07:44:30;;;;;;;6.40;3.15;;;7.80;85.10;;;;;;5001446;28;20057;-69
2021/12/17 07:47:15;;;;;;;6.57;2.70;;;7.80;85.20;;;;;;5002019;28;20411;-70
2021/12/17 07:49:48;;;;;;;7.50;2.85;;;7.80;85.10;;;;;;4985017;28;20437;-69
2021/12/17 07:52:15;;;;;;;8.15;3.65;;;7.80;85.30;;;;;;5000495;28;20053;-69
2021/12/17 07:54:42;;;;;;;8.32;3.45;;;7.70;85.40;;;;;;4984154;28;20138;-68
2021/12/17 07:57:11;;;;;;;7.28;3.80;;;7.70;85.60;;;;;;4983213;28;20054;-68
2021/12/17 07:59:41;;;;;;;8.07;3.53;;;7.80;85.60;;;;;;4985645;28;20068;-68
2021/12/17 08:02:09;;;;;;;6.13;3.60;;;7.80;85.60;;;;;;4983396;28;20136;-69
2021/12/17 08:04:43;;;;;;;6.40;3.40;;;7.80;85.60;;;;;;4982888;28;23063;-68
2021/12/17 08:07:18;;;;;;;5.82;3.33;;;7.80;85.50;;;;;;4984064;28;20408;-69
2021/12/17 08:09:46;;;;;;;7.13;3.45;;;7.80;85.60;;;;;;5001270;28;20041;-69
2021/12/17 08:12:13;;;;;;;7.97;3.08;;;7.80;85.60;;;;;;5001589;28;20038;-69
2021/12/17 08:14:51;;;;;;;7.25;3.47;;;7.80;85.50;;;;;;4983480;28;22427;-68
2021/12/17 08:17:38;;;;;;;6.70;3.08;;;7.80;85.50;;;;;;4984149;28;20046;-68
2021/12/17 08:25:50;;;;;;;4.70;2.65;;;7.80;85.80;;;;;;4999262;28;20061;-68
2021/12/17 08:28:19;;;;;;;6.57;3.63;;;7.80;85.80;;;;;;4999792;28;20097;-69
2021/12/17 08:30:47;;;;;;;7.80;3.75;;;7.80;85.60;;;;;;4984772;28;20137;-68
2021/12/17 08:33:21;;;;;;;8.27;2.95;;;7.90;85.40;;;;;;4984658;28;20060;-70
2021/12/17 08:35:51;;;;;;;7.50;3.38;;;7.90;85.20;;;;;;4998009;28;20070;-69
2021/12/17 08:38:37;;;;;;;6.03;2.97;;;7.90;85.10;;;;;;4983663;28;20045;-68
2021/12/17 08:41:26;;;;;;;8.65;3.88;;;7.90;85.00;;;;;;4980461;28;20843;-70
2021/12/17 08:43:53;;;;;;;8.18;3.42;;;7.90;84.90;;;;;;4996606;28;20042;-69
2021/12/17 08:46:22;;;;;;;7.82;3.47;;;7.90;84.80;;;;;;4981163;28;20306;-70
2021/12/17 08:49:05;;;;;;;6.95;3.55;;;8.00;84.80;;;;;;4980283;28;20097;-69
2021/12/17 08:51:54;;;;;;;10.02;4.60;;;7.90;84.80;;;;;;4999612;28;20046;-69
2021/12/17 08:54:21;;;;;;;8.45;4.13;;;7.90;84.90;;;;;;4998533;28;20092;-70
2021/12/17 08:56:50;;;;;;;6.93;3.88;;;8.00;85.00;;;;;;4978115;28;20046;-68
2021/12/17 08:59:22;;;;;;;7.90;4.15;;;8.00;84.90;;;;;;4983289;28;20392;-69
2021/12/17 09:02:10;;;;;;;7.35;3.97;;;8.00;85.00;;;;;;4998863;28;20538;-73
2021/12/17 09:04:40;;;;;;;7.07;3.58;;;7.90;85.20;;;;;;4981581;28;20041;-70
2021/12/17 09:07:11;;;;;;;7.00;4.03;;;8.00;85.30;;;;;;4981535;28;20069;-72
2021/12/17 09:09:39;;;;;;;8.77;4.22;;;8.00;85.30;;;;;;4982057;28;20506;-72
2021/12/17 09:12:19;;;;;;;9.15;4.03;;;8.00;85.40;;;;;;4982734;28;20474;-71
2021/12/17 09:14:46;;;;;;;7.90;4.30;;;8.00;85.30;;;;;;4976893;28;20054;-73
2021/12/17 09:17:35;;;;;;;6.75;3.75;;;8.10;85.40;;;;;;4997937;28;20480;-72
2021/12/17 09:20:05;;;;;;;;;;;8.10;85.30;;;;;;4998157;28;20141;-74
2021/12/17 09:22:32;;;;;;;9.52;3.60;;;8.10;85.20;;;;;;4997687;28;19929;-72
2021/12/17 09:25:04;;;;;;;8.68;3.67;;;8.10;85.10;;;;;;4999783;28;20081;-73
2021/12/17 09:27:51;;;;;;;8.77;4.03;;;8.10;85.00;;;;;;4998944;28;20085;-72
2021/12/17 09:30:38;;;;;;;6.88;3.35;;;8.10;84.90;;;;;;4996613;28;20055;-72
2021/12/17 09:33:07;;;;;;;9.43;4.80;;;8.10;84.90;;;;;;5002419;28;20125;-72
2021/12/17 09:35:34;;;;;;;8.45;3.90;;;8.20;84.90;;;;;;5004395;28;20050;-73
2021/12/17 09:38:01;;;;;;;6.88;3.92;;;8.20;84.80;;;;;;5005217;28;20057;-72
2021/12/17 09:40:31;;;;;;;10.40;5.05;;;8.20;84.70;;;;;;5004362;28;20381;-72
2021/12/17 09:42:58;;;;;;;9.02;5.38;;;8.20;84.70;;;;;;5003458;28;20547;-72
2021/12/17 09:45:26;;;;;;;9.38;5.85;;;8.20;84.60;;;;;;5003751;28;20046;-72
2021/12/17 09:47:54;;;;;;;12.68;6.97;;;8.30;84.50;;;;;;5003281;28;20045;-72
2021/12/17 09:50:22;;;;;;;10.85;6.38;;;8.40;84.30;;;;;;5009656;28;20415;-72
2021/12/17 09:52:50;;;;;;;12.05;6.13;;;8.40;83.90;;;;;;5010579;28;20042;-72
2021/12/17 09:55:17;;;;;;;13.00;5.90;;;8.40;83.60;;;;;;5007776;28;20491;-73
2021/12/17 09:57:44;;;;;;;13.55;5.78;;;8.40;83.30;;;;;;5006840;28;20038;-72
2021/12/17 10:00:15;;;;;;;11.82;5.35;;;8.40;83.00;;;;;;5002917;28;20041;-72
2021/12/17 10:02:44;;;;;;;10.52;5.18;;;8.40;82.60;;;;;;5009846;28;20130;-72
2021/12/17 10:05:14;;;;;;;10.52;4.78;;;8.40;82.20;;;;;;5011600;28;20049;-72
2021/12/17 10:07:44;;;;;;;7.70;4.05;;;8.40;81.80;;;;;;5008437;28;20050;-72
2021/12/17 10:10:13;;;;;;;9.15;4.68;;;8.40;81.60;;;;;;5004485;28;20049;-73
2021/12/17 10:12:42;;;;;;;9.40;4.50;;;8.40;81.50;;;;;;5004631;28;20038;-72
2021/12/17 10:15:11;;;;;;;10.87;5.43;;;8.40;81.50;;;;;;5002805;28;20511;-73
2021/12/17 10:17:52;;;;;;;9.85;5.07;;;8.40;81.40;;;;;;5003530;28;20184;-72
2021/12/17 10:20:20;;;;;;;11.65;5.00;;;8.40;81.70;;;;;;5003948;28;20141;-72
2021/12/17 10:22:56;;;;;;;10.52;3.95;;;8.40;81.50;;;;;;5001444;28;20054;-72
2021/12/17 10:25:23;;;;;;;11.05;4.40;;;8.40;81.60;;;;;;5002848;28;20068;-72
2021/12/17 10:27:57;;;;;;;9.63;4.65;;;8.40;81.30;;;;;;5003155;28;20105;-72
2021/12/17 10:30:24;;;;;;;7.93;3.65;;;8.40;81.30;;;;;;5000689;28;20108;-72
2021/12/17 10:32:53;;;;;;;7.78;4.13;;;8.40;81.20;;;;;;5001981;28;20639;-73
2021/12/17 10:35:22;;;;;;;9.15;3.85;;;8.40;81.20;;;;;;5001380;28;20052;-72
2021/12/17 10:37:56;;;;;;;8.13;3.63;;;8.40;81.20;;;;;;4997944;28;20496;-72
2021/12/17 10:40:26;;;;;;;10.93;3.97;;;8.40;81.10;;;;;;5003799;28;20124;-72
2021/12/17 10:43:03;;;;;;;9.23;4.35;;;8.40;81.10;;;;;;5001307;28;20499;-72
2021/12/17 10:45:35;;;;;;;;;;;8.40;81.20;;;;;;5002462;28;20045;-72
2021/12/17 10:48:26;;;;;;;7.35;3.03;;;8.40;81.20;;;;;;4999662;28;19929;-72
2021/12/17 10:51:02;;;;;;;8.05;3.63;;;8.50;81.30;;;;;;5000760;28;20120;-73
2021/12/17 10:53:31;;;;;;;8.65;4.10;;;8.50;81.30;;;;;;4999729;28;20045;-71
2021/12/17 10:55:59;;;;;;;8.20;3.53;;;8.50;81.10;;;;;;4999774;28;20790;-73
2021/12/17 10:58:27;;;;;;;9.30;4.25;;;8.50;81.20;;;;;;4999052;28;20120;-72
2021/12/17 11:01:01;;;;;;;9.32;3.95;;;8.50;81.30;;;;;;4985175;28;20358;-71
2021/12/17 11:03:30;;;;;;;11.98;3.75;;;8.60;81.30;;;;;;5003547;28;20048;-72
2021/12/17 11:05:58;;;;;;;7.72;3.30;;;8.60;81.40;;;;;;5004788;28;20045;-72
2021/12/17 11:08:33;;;;;;;8.38;3.92;;;8.60;81.60;;;;;;5004952;28;20553;-73
2021/12/17 11:11:08;;;;;;;11.13;4.05;;;8.60;81.60;;;;;;5005562;28;20120;-72
2021/12/17 11:13:36;;;;;;;8.40;4.32;;;8.70;81.50;;;;;;5003348;28;20127;-72
2021/12/17 11:16:03;;;;;;;20.48;6.93;;;8.70;81.30;;;;;;4995557;28;20411;-72
2021/12/17 11:18:31;;;;;;;28.55;9.68;;;8.70;81.30;;;;;;5002177;28;20069;-72
2021/12/17 11:20:58;;;;;;;43.03;14.25;;;8.70;81.30;;;;;;5002731;28;20060;-73
2021/12/17 11:23:27;;;;;;;32.42;12.23;;;8.70;81.20;;;;;;5001784;28;20042;-73
2021/12/17 11:25:54;;;;;;;26.73;10.30;;;8.70;81.20;;;;;;5000617;28;20048;-73
2021/12/17 11:28:24;;;;;;;27.02;9.00;;;8.70;81.20;;;;;;5003977;28;20065;-73
2021/12/17 11:30:52;;;;;;;17.90;7.67;;;8.70;81.00;;;;;;5001945;28;20488;-72
2021/12/17 11:33:19;;;;;;;20.20;7.70;;;8.70;81.00;;;;;;5002554;28;20476;-72
2021/12/17 11:35:49;;;;;;;13.60;5.55;;;8.70;80.70;;;;;;5002515;28;20041;-72
2021/12/17 11:38:21;;;;;;;14.50;5.50;;;8.70;80.50;;;;;;5004007;28;20052;-74
2021/12/17 11:40:52;;;;;;;10.55;5.38;;;8.70;80.70;;;;;;5001871;28;20500;-72
2021/12/17 11:43:38;;;;;;;11.23;4.97;;;8.70;80.60;;;;;;5002005;28;20044;-73
2021/12/17 11:46:07;;;;;;;11.77;4.43;;;8.70;80.70;;;;;;5001754;28;20050;-72
2021/12/17 11:48:35;;;;;;;10.48;4.57;;;8.70;80.90;;;;;;5002900;28;20064;-73
2021/12/17 11:51:11;;;;;;;9.93;4.47;;;8.70;80.90;;;;;;5004113;28;20046;-73
2021/12/17 11:53:43;;;;;;;10.30;4.57;;;8.70;80.90;;;;;;5001187;28;20046;-73
2021/12/17 11:56:10;;;;;;;9.88;4.18;;;8.70;80.80;;;;;;5001679;28;20046;-72
2021/12/17 11:58:51;;;;;;;8.90;3.13;;;8.80;80.70;;;;;;5004540;28;20499;-72
2021/12/17 12:01:50;;;;;;;9.20;3.78;;;8.80;80.60;;;;;;4996708;28;20049;-73
2021/12/17 12:04:41;;;;;;;10.45;4.13;;;8.80;80.70;;;;;;4998733;28;20651;-74
2021/12/17 12:07:10;;;;;;;8.15;3.13;;;8.80;80.70;;;;;;4998746;28;20062;-72
2021/12/17 12:10:03;;;;;;;8.20;3.45;;;8.80;80.70;;;;;;4999150;28;20044;-72
2021/12/17 12:12:50;;;;;;;6.60;2.78;;;8.80;80.70;;;;;;4997420;28;20042;-73
2021/12/17 12:16:01;;;;;;;11.52;4.03;;;8.80;80.80;;;;;;4999899;28;20129;-73
2021/12/17 12:18:50;;;;;;;8.75;3.30;;;8.90;80.90;;;;;;4982885;28;20050;-72
2021/12/17 12:21:18;;;;;;;7.47;2.92;;;8.90;80.90;;;;;;5000806;28;20083;-71
2021/12/17 12:23:48;;;;;;;8.25;3.15;;;8.80;81.00;;;;;;5000456;28;20046;-73
2021/12/17 12:26:34;;;;;;;9.25;3.67;;;8.90;80.90;;;;;;4995606;28;20125;-72
2021/12/17 12:29:06;;;;;;;7.93;3.55;;;8.90;80.90;;;;;;5002916;28;20046;-72
2021/12/17 12:31:52;;;;;;;11.80;3.53;;;8.90;80.70;;;;;;4998707;28;20038;-72
2021/12/17 12:34:20;;;;;;;8.68;3.50;;;8.90;80.70;;;;;;4994697;28;20137;-72
2021/12/17 12:36:57;;;;;;;9.18;3.30;;;8.90;80.80;;;;;;4998161;28;20054;-72
2021/12/17 12:39:29;;;;;;;10.50;3.45;;;8.90;80.70;;;;;;4997673;28;20164;-72
2021/12/17 12:42:02;;;;;;;7.93;2.78;;;8.90;80.70;;;;;;5000995;28;20052;-72
2021/12/17 12:45:08;;;;;;;10.10;3.53;;;8.90;80.30;;;;;;5001216;28;20097;-72
2021/12/17 12:47:58;;;;;;;11.63;3.78;;;8.90;80.30;;;;;;5000726;28;20042;-73
2021/12/17 12:50:28;;;;;;;8.47;3.07;;;8.90;80.40;;;;;;4986876;28;20050;-73
2021/12/17 12:52:57;;;;;;;8.80;4.13;;;8.90;80.60;;;;;;5002921;28;20607;-72
2021/12/17 12:55:28;;;;;;;9.13;3.78;;;8.90;80.60;;;;;;5001742;28;20044;-73
2021/12/17 12:58:02;;;;;;;8.88;3.33;;;8.90;80.70;;;;;;5003437;28;20139;-72
2021/12/17 13:00:32;;;;;;;8.70;3.58;;;8.90;80.60;;;;;;5000837;28;20057;-72
2021/12/17 13:03:03;;;;;;;8.85;3.75;;;8.90;80.70;;;;;;5003307;28;20049;-72
2021/12/17 13:05:31;;;;;;;8.57;3.35;;;8.90;80.80;;;;;;5003010;28;20487;-72
2021/12/17 13:08:00;;;;;;;8.32;3.55;;;8.90;80.90;;;;;;5006106;28;20132;-73
2021/12/17 13:10:31;;;;;;;8.50;3.65;;;8.90;80.60;;;;;;5004213;28;20381;-72
2021/12/17 13:13:07;;;;;;;9.40;3.97;;;8.90;80.50;;;;;;5006542;28;20046;-73
2021/12/17 13:15:42;;;;;;;11.68;3.88;;;8.90;80.60;;;;;;5013583;28;20140;-72
2021/12/17 13:21:16;;;;;;;11.75;3.85;;;8.90;80.90;;;;;;5014378;28;20397;-73
2021/12/17 13:23:49;;;;;;;7.75;2.90;;;8.90;80.80;;;;;;5009827;28;20049;-72
2021/12/17 13:26:17;;;;;;;8.93;3.33;;;8.90;80.70;;;;;;5012895;28;20046;-73
2021/12/17 13:29:11;;;;;;;7.97;3.08;;;8.90;80.60;;;;;;5011907;28;20046;-72
2021/12/17 13:31:45;;;;;;;11.05;3.03;;;8.80;80.60;;;;;;5012067;28;20048;-72
2021/12/17 13:34:17;;;;;;;6.13;2.85;;;8.80;80.70;;;;;;5012388;28;20046;-72
2021/12/17 13:36:53;;;;;;;8.30;3.67;;;8.90;80.70;;;;;;5012993;28;20038;-72
2021/12/17 13:39:23;;;;;;;11.35;4.40;;;8.80;80.70;;;;;;5013357;28;20136;-71
2021/12/17 13:41:50;;;;;;;8.07;3.72;;;8.90;80.70;;;;;;5010007;28;20072;-71
2021/12/17 13:44:36;;;;;;;7.88;3.28;;;8.80;80.70;;;;;;5011247;28;20041;-71
2021/12/17 13:47:28;;;;;;;7.97;3.47;;;8.80;80.70;;;;;;5011151;28;20042;-73
2021/12/17 13:50:02;;;;;;;10.18;4.43;;;8.80;80.80;;;;;;5012831;28;20049;-72
2021/12/17 13:52:31;;;;;;;9.35;3.97;;;8.80;81.00;;;;;;5011497;28;21000;-72
2021/12/17 13:55:00;;;;;;;10.63;4.25;;;8.80;81.00;;;;;;5005807;28;20040;-72
2021/12/17 13:57:31;;;;;;;8.93;4.65;;;8.80;81.00;;;;;;5010542;28;20061;-72
2021/12/17 14:00:10;;;;;;;7.83;3.47;;;8.80;81.00;;;;;;5009581;28;20150;-72
2021/12/17 14:02:43;;;;;;;9.90;4.22;;;8.80;81.00;;;;;;5006726;28;20042;-72
2021/12/17 14:05:15;;;;;;;7.38;2.92;;;8.80;81.10;;;;;;5008575;28;20132;-72
2021/12/17 14:07:48;;;;;;;8.18;3.53;;;8.80;81.20;;;;;;5008546;28;20108;-72
2021/12/17 14:10:26;;;;;;;7.68;3.65;;;8.80;81.20;;;;;;5009898;28;20070;-71
2021/12/17 14:12:53;;;;;;;8.63;3.30;;;8.80;81.30;;;;;;5009738;28;20404;-72
2021/12/17 14:15:22;;;;;;;14.55;5.25;;;8.80;81.40;;;;;;5010545;28;20492;-72
2021/12/17 14:17:54;;;;;;;24.17;9.10;;;8.80;81.40;;;;;;5007439;28;20046;-72
2021/12/17 14:20:24;;;;;;;18.45;7.43;;;8.80;81.50;;;;;;5011550;28;20073;-73
2021/12/17 14:22:53;;;;;;;21.92;7.57;;;8.80;81.60;;;;;;5011690;28;20061;-73
2021/12/17 14:25:28;;;;;;;20.73;8.13;;;8.80;81.70;;;;;;5000159;28;20034;-71
2021/12/17 14:27:56;;;;;;;17.92;7.18;;;8.70;81.80;;;;;;5007042;28;20642;-72
2021/12/17 14:30:33;;;;;;;14.60;6.65;;;8.80;81.90;;;;;;5002167;28;20041;-73
2021/12/17 14:33:13;;;;;;;16.23;6.40;;;8.80;82.00;;;;;;5003661;28;20054;-73
2021/12/17 14:35:54;;;;;;;18.05;7.32;;;8.80;82.10;;;;;;5005975;28;20040;-73
2021/12/17 14:38:23;;;;;;;17.10;7.35;;;8.80;82.10;;;;;;5002319;28;20060;-72
2021/12/17 14:40:55;;;;;;;21.73;8.55;;;8.80;82.10;;;;;;5001414;28;20045;-72
2021/12/17 14:43:30;;;;;;;22.05;8.02;;;8.80;82.00;;;;;;5004309;28;20112;-71
2021/12/17 14:46:08;;;;;;;19.27;7.25;;;8.80;82.00;;;;;;5000815;28;20092;-72
2021/12/17 14:48:42;;;;;;;16.48;6.65;;;8.70;81.90;;;;;;5003822;28;20034;-73
2021/12/17 15:02:28;;;;;;;10.02;4.53;;;8.70;81.90;;;;;;5007837;28;20041;-73
2021/12/17 15:04:55;;;;;;;11.20;4.10;;;8.70;81.90;;;;;;5006218;28;20396;-73
2021/12/17 15:07:23;;;;;;;9.55;4.15;;;8.70;82.00;;;;;;5002667;28;20521;-72
2021/12/17 15:09:50;;;;;;;12.65;3.95;;;8.70;82.00;;;;;;5004135;28;20407;-73
2021/12/17 15:15:03;;;;;;;9.70;3.42;;;8.70;82.00;;;;;;5004308;28;20053;-74
2021/12/17 15:17:32;;;;;;;9.15;3.55;;;8.70;82.00;;;;;;5004237;28;20042;-73
2021/12/17 15:19:59;;;;;;;8.07;4.25;;;8.70;82.00;;;;;;5009408;28;20462;-75
2021/12/17 15:22:28;;;;;;;9.43;3.63;;;8.70;82.10;;;;;;4987798;28;20412;-73
2021/12/17 15:24:55;;;;;;;10.57;4.30;;;8.60;82.10;;;;;;5006956;28;20377;-73
2021/12/17 15:27:23;;;;;;;10.63;4.05;;;8.60;82.30;;;;;;5004915;28;20053;-73
2021/12/17 15:29:50;;;;;;;10.13;4.30;;;8.60;82.20;;;;;;5007142;28;20139;-71
2021/12/17 15:32:17;;;;;;;13.70;5.65;;;8.60;82.30;;;;;;5005064;28;20400;-73
2021/12/17 15:34:44;;;;;;;14.32;5.68;;;8.60;82.40;;;;;;4998911;28;20046;-73
2021/12/17 15:37:11;;;;;;;16.67;6.05;;;8.60;82.50;;;;;;5002011;28;20048;-72
2021/12/17 15:39:39;;;;;;;14.15;6.10;;;8.60;82.50;;;;;;5003561;28;20046;-72
2021/12/17 15:42:06;;;;;;;10.77;4.32;;;8.50;82.50;;;;;;4997209;28;20045;-72
2021/12/17 15:44:33;;;;;;;12.85;4.32;;;8.50;82.50;;;;;;4996495;28;20058;-72
2021/12/17 15:47:00;;;;;;;10.73;4.97;;;8.50;82.60;;;;;;4983427;28;20064;-72
2021/12/17 15:49:27;;;;;;;12.23;6.10;;;8.50;82.60;;;;;;4998916;28;20049;-70
2021/12/17 15:51:54;;;;;;;10.95;4.80;;;8.50;82.70;;;;;;5005671;28;20626;-70
2021/12/17 15:54:21;;;;;;;11.50;4.65;;;8.50;82.70;;;;;;5007704;28;20049;-72